createdAt,value
2018-02-11T00:00:01.864Z,0.7
2018-02-11T00:05:01.497Z,0.7
2018-02-11T00:10:01.445Z,0.7
2018-02-11T00:15:02.409Z,0.7
2018-02-11T00:20:01.396Z,0.7
2018-02-11T00:25:02.020Z,0.7
2018-02-11T00:30:02.667Z,0.7
2018-02-11T00:35:01.390Z,0.7
2018-02-11T00:40:01.473Z,0.7
2018-02-11T00:45:01.372Z,0.7
2018-02-11T00:50:01.978Z,0.7
2018-02-11T00:55:01.929Z,0.7
2018-02-11T01:00:02.120Z,0.7
2018-02-11T01:05:02.559Z,0.7
2018-02-11T01:10:02.575Z,0.7
2018-02-11T01:15:01.333Z,0.7
2018-02-11T01:20:02.221Z,0.7
2018-02-11T01:25:02.596Z,0.7
2018-02-11T01:30:01.641Z,0.7
2018-02-11T01:35:01.674Z,0.7
2018-02-11T01:40:01.257Z,0.7
2018-02-11T01:45:01.754Z,0.7
2018-02-11T01:50:01.542Z,0.7
2018-02-11T01:55:02.103Z,0.7
2018-02-11T02:00:02.047Z,0.7
2018-02-11T02:05:01.929Z,0.7
2018-02-11T02:10:01.582Z,0.7
2018-02-11T02:15:01.694Z,0.9
2018-02-11T02:20:01.997Z,0.9
2018-02-11T02:25:01.850Z,0.9
2018-02-11T02:30:01.737Z,0.9
2018-02-11T02:35:01.763Z,0.9
2018-02-11T02:40:01.572Z,0.9
2018-02-11T02:45:02.142Z,0.9
2018-02-11T02:50:02.610Z,0.9
2018-02-11T02:55:01.600Z,0.9
2018-02-11T03:00:01.878Z,0.9
2018-02-11T03:05:02.074Z,0.9
2018-02-11T03:10:02.247Z,0.8
2018-02-11T03:15:01.222Z,0.8
2018-02-11T03:20:01.489Z,0.8
2018-02-11T03:25:02.499Z,0.8
2018-02-11T03:30:01.536Z,0.8
2018-02-11T03:35:01.855Z,0.7
2018-02-11T03:40:02.007Z,0.7
2018-02-11T03:45:01.940Z,0.7
2018-02-11T03:50:01.944Z,0.8
2018-02-11T03:55:02.183Z,0.8
2018-02-11T04:00:01.429Z,0.8
2018-02-11T04:05:02.023Z,0.8
2018-02-11T04:10:02.090Z,0.8
2018-02-11T04:15:01.158Z,0.8
2018-02-11T04:20:02.348Z,0.8
2018-02-11T04:25:02.031Z,0.8
2018-02-11T04:30:02.152Z,0.8
2018-02-11T04:35:01.504Z,0.8
2018-02-11T04:40:01.733Z,0.8
2018-02-11T04:45:01.243Z,0.8
2018-02-11T04:50:02.164Z,0.8
2018-02-11T04:55:01.551Z,0.8
2018-02-11T05:00:02.265Z,0.8
2018-02-11T05:05:01.895Z,0.8
2018-02-11T05:10:01.869Z,0.8
2018-02-11T05:15:01.658Z,0.8
2018-02-11T05:20:01.814Z,0.8
2018-02-11T05:25:01.945Z,0.8
2018-02-11T05:30:01.703Z,0.8
2018-02-11T05:35:02.073Z,0.8
2018-02-11T05:40:02.201Z,0.8
2018-02-11T05:45:02.003Z,0.8
2018-02-11T05:50:01.348Z,0.8
2018-02-11T05:55:02.551Z,0.8
2018-02-11T06:00:01.673Z,0.8
2018-02-11T06:05:01.250Z,0.8
2018-02-11T06:10:02.388Z,0.8
2018-02-11T06:15:01.391Z,0.8
2018-02-11T06:20:01.400Z,0.8
2018-02-11T06:25:01.972Z,0.8
2018-02-11T06:30:02.755Z,0.8
2018-02-11T06:35:01.385Z,0.8
2018-02-11T06:40:01.924Z,0.8
2018-02-11T06:45:01.926Z,0.8
2018-02-11T06:50:01.995Z,0.8
2018-02-11T06:55:01.215Z,0.8
2018-02-11T07:00:01.358Z,0.8
2018-02-11T07:05:02.572Z,0.8
2018-02-11T07:10:02.119Z,1
2018-02-11T07:15:01.926Z,1
2018-02-11T07:20:01.877Z,0.9
2018-02-11T07:25:01.803Z,0.9
2018-02-11T07:30:01.312Z,0.9
2018-02-11T07:35:01.480Z,1
2018-02-11T07:40:01.693Z,1
2018-02-11T07:45:01.931Z,1
2018-02-11T07:50:02.027Z,1
2018-02-11T07:55:01.995Z,1.1
2018-02-11T08:00:01.767Z,1
2018-02-11T08:05:01.272Z,1
2018-02-11T08:10:02.601Z,1
2018-02-11T08:15:01.860Z,1
2018-02-11T08:20:01.801Z,1
2018-02-11T08:25:01.870Z,1
2018-02-11T08:30:01.763Z,0.7
2018-02-11T08:35:02.009Z,0.7
2018-02-11T08:40:01.659Z,0.7
2018-02-11T08:45:01.885Z,0.7
2018-02-11T08:50:01.903Z,0.7
2018-02-11T08:55:01.909Z,0.7
2018-02-11T09:00:02.360Z,0.7
2018-02-11T09:05:01.420Z,0.7
2018-02-11T09:10:01.792Z,0.7
2018-02-11T09:15:01.426Z,0.7
2018-02-11T09:20:02.746Z,0.4
2018-02-11T09:25:01.839Z,0.4
2018-02-11T09:30:02.140Z,0.4
2018-02-11T09:35:01.561Z,0.4
2018-02-11T09:40:02.333Z,0.4
2018-02-11T09:45:01.273Z,0.5
2018-02-11T09:50:02.054Z,0.5
2018-02-11T09:55:02.015Z,0.5
2018-02-11T10:00:02.183Z,0.5
2018-02-11T10:05:01.318Z,0.5
2018-02-11T10:10:02.044Z,0.5
2018-02-11T10:15:02.015Z,0.5
2018-02-11T10:20:01.803Z,0.5
2018-02-11T10:25:02.052Z,0.5
2018-02-11T10:30:01.546Z,0.5
2018-02-11T10:35:02.075Z,0.5
2018-02-11T10:40:01.181Z,0.5
2018-02-11T10:45:01.812Z,0.5
2018-02-11T10:50:02.277Z,0.5
2018-02-11T10:55:01.885Z,0.5
2018-02-11T11:00:01.822Z,0.5
2018-02-11T11:05:02.030Z,0.5
2018-02-11T11:10:02.206Z,0.5
2018-02-11T11:15:01.214Z,0.5
2018-02-11T11:20:01.895Z,0.5
2018-02-11T11:25:01.202Z,0.5
2018-02-11T11:30:02.241Z,0.5
2018-02-11T11:35:01.759Z,0.5
2018-02-11T11:40:01.606Z,0.5
2018-02-11T11:45:01.785Z,0.5
2018-02-11T11:50:02.279Z,0.5
2018-02-11T11:55:01.785Z,0.5
2018-02-11T12:00:02.105Z,0.5
2018-02-11T12:05:01.867Z,0.5
2018-02-11T12:10:02.243Z,0.5
2018-02-11T12:15:01.724Z,0.5
2018-02-11T12:20:01.684Z,0.5
2018-02-11T12:25:01.463Z,0.5
2018-02-11T12:30:02.541Z,0.5
2018-02-11T12:35:01.301Z,0.5
2018-02-11T12:40:02.171Z,0.5
2018-02-11T12:45:01.807Z,0.5
2018-02-11T12:50:02.810Z,0.5
2018-02-11T12:55:01.393Z,0.5
2018-02-11T13:00:01.875Z,0.5
2018-02-11T13:05:01.930Z,1.8
2018-02-11T13:10:02.318Z,1.9
2018-02-11T13:15:02.034Z,1.9
2018-02-11T13:20:01.937Z,1.9
2018-02-11T13:25:01.621Z,1.9
2018-02-11T13:30:02.550Z,2.1
2018-02-11T13:35:02.044Z,2.2
2018-02-11T13:40:01.960Z,2.3
2018-02-11T13:45:01.763Z,2.4
2018-02-11T13:50:02.338Z,2.4
2018-02-11T13:55:01.256Z,2.4
2018-02-11T14:00:01.955Z,2.4
2018-02-11T14:05:01.772Z,2.4
2018-02-11T14:10:02.430Z,2.4
2018-02-11T14:15:01.904Z,2.4
2018-02-11T14:20:01.620Z,2.4
2018-02-11T14:25:02.063Z,2.4
2018-02-11T14:30:01.966Z,2.4
2018-02-11T14:35:01.618Z,2.4
2018-02-11T14:40:01.594Z,2.4
2018-02-11T14:45:02.103Z,2.9
2018-02-11T14:50:02.109Z,2.9
2018-02-11T14:55:01.348Z,2.9
2018-02-11T15:00:01.856Z,2.9
2018-02-11T15:05:02.088Z,2.9
2018-02-11T15:10:01.806Z,2.9
2018-02-11T15:15:01.970Z,2.9
2018-02-11T15:20:01.450Z,2.9
2018-02-11T15:25:02.450Z,2.9
2018-02-11T15:30:01.514Z,2.9
2018-02-11T15:35:01.434Z,2.9
2018-02-11T15:40:01.738Z,2.8
2018-02-11T15:45:02.491Z,2.8
2018-02-11T15:50:01.398Z,2.8
2018-02-11T15:55:01.476Z,2.8
2018-02-11T16:00:01.906Z,2.7
2018-02-11T16:05:01.694Z,2.7
2018-02-11T16:10:01.705Z,2.7
2018-02-11T16:15:01.566Z,2.7
2018-02-11T16:20:02.345Z,2.7
2018-02-11T16:25:01.846Z,2.7
2018-02-11T16:30:02.086Z,2.7
2018-02-11T16:35:01.178Z,2.7
2018-02-11T16:40:01.418Z,2.7
2018-02-11T16:45:01.885Z,2.7
2018-02-11T16:50:01.999Z,2.7
2018-02-11T16:55:02.352Z,2.7
2018-02-11T17:00:01.828Z,2.7
2018-02-11T17:05:01.537Z,2.7
2018-02-11T17:10:02.618Z,2.7
2018-02-11T17:15:02.208Z,2.7
2018-02-11T17:20:01.436Z,2.7
2018-02-11T17:25:01.821Z,2.7
2018-02-11T17:30:02.545Z,2.7
2018-02-11T17:35:01.731Z,2.7
2018-02-11T17:40:02.041Z,2.7
2018-02-11T17:45:01.276Z,2.6
2018-02-11T17:50:02.422Z,2.6
2018-02-11T17:55:02.033Z,2.6
2018-02-11T18:00:01.572Z,2.6
2018-02-11T18:05:01.542Z,2.6
2018-02-11T18:10:02.075Z,2.6
2018-02-11T18:15:01.676Z,2.6
2018-02-11T18:20:01.675Z,2.6
2018-02-11T18:25:02.609Z,2.6
2018-02-11T18:30:01.778Z,2.6
2018-02-11T18:35:01.523Z,2.6
2018-02-11T18:40:01.343Z,2.6
2018-02-11T18:45:01.806Z,2.6
2018-02-11T18:50:01.878Z,2.6
2018-02-11T18:55:02.030Z,2.6
2018-02-11T19:00:02.134Z,2.6
2018-02-11T19:05:01.736Z,2.6
2018-02-11T19:10:02.352Z,2.6
2018-02-11T19:15:02.023Z,2.6
2018-02-11T19:20:02.038Z,2.6
2018-02-11T19:25:02.182Z,2.6
2018-02-11T19:30:01.371Z,2.6
2018-02-11T19:35:02.252Z,2.6
2018-02-11T19:40:01.144Z,2.6
2018-02-11T19:45:01.498Z,2.6
2018-02-11T19:50:01.956Z,2.6
2018-02-11T19:55:01.674Z,2.6
2018-02-11T20:00:02.075Z,2.6
2018-02-11T20:05:01.752Z,2.6
2018-02-11T20:10:02.381Z,2.6
2018-02-11T20:15:01.512Z,2.6
2018-02-11T20:20:02.511Z,2.6
2018-02-11T20:25:02.689Z,2.6
2018-02-11T20:30:01.969Z,2.6
2018-02-11T20:35:01.956Z,2.6
2018-02-11T20:40:01.772Z,2.6
2018-02-11T20:45:02.048Z,2.6
2018-02-11T20:50:01.944Z,2.6
2018-02-11T20:55:02.030Z,2.6
2018-02-11T21:00:02.001Z,2.6
2018-02-11T21:05:01.252Z,2.6
2018-02-11T21:10:01.980Z,2.6
2018-02-11T21:15:02.367Z,2.6
2018-02-11T21:20:01.504Z,2.6
2018-02-11T21:25:01.693Z,2.6
2018-02-11T21:30:01.559Z,2.7
2018-02-11T21:35:01.902Z,2.7
2018-02-11T21:40:01.722Z,2.6
2018-02-11T21:45:01.775Z,2.6
2018-02-11T21:50:01.880Z,2.6
2018-02-11T21:55:01.765Z,2.5
2018-02-11T22:00:01.399Z,2.4
2018-02-11T22:05:01.581Z,2.4
2018-02-11T22:10:01.278Z,2.4
2018-02-11T22:15:01.462Z,2.4
2018-02-11T22:20:01.942Z,2.3
2018-02-11T22:25:01.580Z,2.3
2018-02-11T22:30:01.436Z,2.3
2018-02-11T22:35:01.736Z,2.3
2018-02-11T22:40:01.798Z,2.3
2018-02-11T22:45:01.382Z,2.3
2018-02-11T22:50:01.869Z,2.3
2018-02-11T22:55:01.464Z,2.1
2018-02-11T23:00:01.399Z,2.1
2018-02-11T23:05:01.759Z,1.9
2018-02-11T23:10:01.925Z,1.9
2018-02-11T23:15:01.277Z,1.9
2018-02-11T23:20:01.509Z,1.9
2018-02-11T23:25:01.286Z,1.9
2018-02-11T23:30:01.460Z,1.9
2018-02-11T23:35:02.219Z,1.9
2018-02-11T23:40:01.345Z,1.9
2018-02-11T23:45:02.140Z,1.9
2018-02-11T23:50:01.950Z,1.9
2018-02-11T23:55:02.039Z,1.9
